sensor_id;sensor_type;location;lat;lon;timestamp;temperature;humidity
19665;DHT22;9980;51.020;7.772;2023-04-29T00:01:22;15.80;99.90
19665;DHT22;9980;51.020;7.772;2023-04-29T00:03:49;15.80;99.90
19665;DHT22;9980;51.020;7.772;2023-04-29T00:06:15;15.70;99.90
19665;DHT22;9980;51.020;7.772;2023-04-29T00:08:42;15.70;99.90
19665;DHT22;9980;51.020;7.772;2023-04-29T00:11:09;15.70;99.90
19665;DHT22;9980;51.020;7.772;2023-04-29T00:13:36;15.70;99.90
19665;DHT22;9980;51.020;7.772;2023-04-29T00:16:06;15.70;99.90
19665;DHT22;9980;51.020;7.772;2023-04-29T00:18:34;15.70;99.90
19665;DHT22;9980;51.020;7.772;2023-04-29T00:21:00;15.70;99.90
19665;DHT22;9980;51.020;7.772;2023-04-29T00:23:26;15.70;99.90
19665;DHT22;9980;51.020;7.772;2023-04-29T00:25:53;15.60;99.90
19665;DHT22;9980;51.020;7.772;2023-04-29T00:28:19;15.60;99.90
19665;DHT22;9980;51.020;7.772;2023-04-29T00:30:46;15.60;99.90
19665;DHT22;9980;51.020;7.772;2023-04-29T00:33:12;15.60;99.90
19665;DHT22;9980;51.020;7.772;2023-04-29T00:35:38;15.60;99.90
19665;DHT22;9980;51.020;7.772;2023-04-29T00:38:04;15.60;99.90
19665;DHT22;9980;51.020;7.772;2023-04-29T00:40:31;15.60;99.90
19665;DHT22;9980;51.020;7.772;2023-04-29T00:42:57;15.60;99.90
19665;DHT22;9980;51.020;7.772;2023-04-29T00:45:24;15.60;99.90
19665;DHT22;9980;51.020;7.772;2023-04-29T00:47:50;15.60;99.90
19665;DHT22;9980;51.020;7.772;2023-04-29T00:50:17;15.60;99.90
19665;DHT22;9980;51.020;7.772;2023-04-29T00:52:43;15.60;99.90
19665;DHT22;9980;51.020;7.772;2023-04-29T00:55:10;15.60;99.90
19665;DHT22;9980;51.020;7.772;2023-04-29T00:57:38;15.60;99.90
19665;DHT22;9980;51.020;7.772;2023-04-29T01:00:05;15.60;99.90
19665;DHT22;9980;51.020;7.772;2023-04-29T01:02:33;15.50;99.90
19665;DHT22;9980;51.020;7.772;2023-04-29T01:04:59;15.50;99.90
19665;DHT22;9980;51.020;7.772;2023-04-29T01:10:54;15.40;99.90
19665;DHT22;9980;51.020;7.772;2023-04-29T01:13:34;15.40;99.90
19665;DHT22;9980;51.020;7.772;2023-04-29T01:16:12;15.30;99.90
19665;DHT22;9980;51.020;7.772;2023-04-29T01:22:19;15.20;99.90
19665;DHT22;9980;51.020;7.772;2023-04-29T01:24:47;15.20;99.90
19665;DHT22;9980;51.020;7.772;2023-04-29T01:33:40;15.00;99.90
19665;DHT22;9980;51.020;7.772;2023-04-29T01:42:13;14.90;99.90
19665;DHT22;9980;51.020;7.772;2023-04-29T01:44:48;14.80;99.90
19665;DHT22;9980;51.020;7.772;2023-04-29T01:47:20;14.80;99.90
19665;DHT22;9980;51.020;7.772;2023-04-29T01:49:51;14.80;99.90
19665;DHT22;9980;51.020;7.772;2023-04-29T01:52:18;14.80;99.90
19665;DHT22;9980;51.020;7.772;2023-04-29T01:54:52;14.70;99.90
19665;DHT22;9980;51.020;7.772;2023-04-29T01:57:19;14.70;99.90
19665;DHT22;9980;51.020;7.772;2023-04-29T01:59:59;14.70;99.90
19665;DHT22;9980;51.020;7.772;2023-04-29T02:02:38;14.70;99.90
19665;DHT22;9980;51.020;7.772;2023-04-29T02:05:15;14.70;99.90
19665;DHT22;9980;51.020;7.772;2023-04-29T02:07:50;14.60;99.90
19665;DHT22;9980;51.020;7.772;2023-04-29T02:10:16;14.60;99.90
19665;DHT22;9980;51.020;7.772;2023-04-29T02:12:45;14.60;99.90
19665;DHT22;9980;51.020;7.772;2023-04-29T02:15:12;14.60;99.90
19665;DHT22;9980;51.020;7.772;2023-04-29T02:17:39;14.50;99.90
19665;DHT22;9980;51.020;7.772;2023-04-29T02:20:06;14.50;99.90
19665;DHT22;9980;51.020;7.772;2023-04-29T02:22:33;14.50;99.90
19665;DHT22;9980;51.020;7.772;2023-04-29T02:25:00;14.50;99.90
19665;DHT22;9980;51.020;7.772;2023-04-29T02:27:26;14.50;99.90
19665;DHT22;9980;51.020;7.772;2023-04-29T02:29:53;14.50;99.90
19665;DHT22;9980;51.020;7.772;2023-04-29T02:32:19;14.40;99.90
19665;DHT22;9980;51.020;7.772;2023-04-29T02:34:45;14.40;99.90
19665;DHT22;9980;51.020;7.772;2023-04-29T02:37:12;14.40;99.90
19665;DHT22;9980;51.020;7.772;2023-04-29T02:39:38;14.40;99.90
19665;DHT22;9980;51.020;7.772;2023-04-29T02:42:06;14.30;99.90
19665;DHT22;9980;51.020;7.772;2023-04-29T02:44:35;14.30;99.90
19665;DHT22;9980;51.020;7.772;2023-04-29T02:47:01;14.30;99.90
19665;DHT22;9980;51.020;7.772;2023-04-29T02:49:28;14.30;99.90
19665;DHT22;9980;51.020;7.772;2023-04-29T02:51:55;14.30;99.90
19665;DHT22;9980;51.020;7.772;2023-04-29T02:54:21;14.30;99.90
19665;DHT22;9980;51.020;7.772;2023-04-29T02:56:48;14.30;99.90
19665;DHT22;9980;51.020;7.772;2023-04-29T02:59:14;14.20;99.90
19665;DHT22;9980;51.020;7.772;2023-04-29T03:01:40;14.20;99.90
19665;DHT22;9980;51.020;7.772;2023-04-29T03:04:08;14.20;99.90
19665;DHT22;9980;51.020;7.772;2023-04-29T03:06:35;14.20;99.90
19665;DHT22;9980;51.020;7.772;2023-04-29T03:09:01;14.20;99.90
19665;DHT22;9980;51.020;7.772;2023-04-29T03:11:27;14.10;99.90
19665;DHT22;9980;51.020;7.772;2023-04-29T03:13:53;14.10;99.90
19665;DHT22;9980;51.020;7.772;2023-04-29T03:16:20;14.10;99.90
19665;DHT22;9980;51.020;7.772;2023-04-29T03:18:48;14.10;99.90
19665;DHT22;9980;51.020;7.772;2023-04-29T03:21:14;14.10;99.90
19665;DHT22;9980;51.020;7.772;2023-04-29T03:23:40;14.10;99.90
19665;DHT22;9980;51.020;7.772;2023-04-29T03:26:11;14.10;99.90
19665;DHT22;9980;51.020;7.772;2023-04-29T03:28:37;14.10;99.90
19665;DHT22;9980;51.020;7.772;2023-04-29T03:31:03;14.00;99.90
19665;DHT22;9980;51.020;7.772;2023-04-29T03:33:30;14.00;99.90
19665;DHT22;9980;51.020;7.772;2023-04-29T03:35:56;14.00;99.90
19665;DHT22;9980;51.020;7.772;2023-04-29T03:38:38;14.00;99.90
19665;DHT22;9980;51.020;7.772;2023-04-29T03:41:04;14.00;99.90
19665;DHT22;9980;51.020;7.772;2023-04-29T03:43:31;14.00;99.90
19665;DHT22;9980;51.020;7.772;2023-04-29T03:45:57;14.00;99.90
19665;DHT22;9980;51.020;7.772;2023-04-29T03:48:24;14.00;99.90
19665;DHT22;9980;51.020;7.772;2023-04-29T03:50:51;14.00;99.90
19665;DHT22;9980;51.020;7.772;2023-04-29T03:53:18;13.90;99.90
19665;DHT22;9980;51.020;7.772;2023-04-29T03:55:45;13.90;99.90
19665;DHT22;9980;51.020;7.772;2023-04-29T03:58:11;13.90;99.90
19665;DHT22;9980;51.020;7.772;2023-04-29T04:00:37;13.90;99.90
19665;DHT22;9980;51.020;7.772;2023-04-29T04:03:09;13.90;99.90
19665;DHT22;9980;51.020;7.772;2023-04-29T04:05:36;13.90;99.90
19665;DHT22;9980;51.020;7.772;2023-04-29T04:08:07;13.90;99.90
19665;DHT22;9980;51.020;7.772;2023-04-29T04:10:55;13.90;99.90
19665;DHT22;9980;51.020;7.772;2023-04-29T04:13:53;13.90;99.90
19665;DHT22;9980;51.020;7.772;2023-04-29T04:16:19;13.80;99.90
19665;DHT22;9980;51.020;7.772;2023-04-29T04:18:46;13.80;99.90
19665;DHT22;9980;51.020;7.772;2023-04-29T04:21:12;13.80;99.90
19665;DHT22;9980;51.020;7.772;2023-04-29T04:23:42;13.80;99.90
19665;DHT22;9980;51.020;7.772;2023-04-29T04:26:12;13.80;99.90
19665;DHT22;9980;51.020;7.772;2023-04-29T04:29:00;13.80;99.90
19665;DHT22;9980;51.020;7.772;2023-04-29T04:31:33;13.70;99.90
19665;DHT22;9980;51.020;7.772;2023-04-29T04:33:59;13.70;99.90
19665;DHT22;9980;51.020;7.772;2023-04-29T04:36:27;13.70;99.90
19665;DHT22;9980;51.020;7.772;2023-04-29T04:38:54;13.70;99.90
19665;DHT22;9980;51.020;7.772;2023-04-29T04:41:20;13.60;99.90
19665;DHT22;9980;51.020;7.772;2023-04-29T04:43:48;13.60;99.90
19665;DHT22;9980;51.020;7.772;2023-04-29T04:46:21;13.60;99.90
19665;DHT22;9980;51.020;7.772;2023-04-29T04:48:55;13.60;99.90
19665;DHT22;9980;51.020;7.772;2023-04-29T04:51:22;13.60;99.90
19665;DHT22;9980;51.020;7.772;2023-04-29T04:53:48;13.60;99.90
19665;DHT22;9980;51.020;7.772;2023-04-29T04:56:19;13.60;99.90
19665;DHT22;9980;51.020;7.772;2023-04-29T04:58:45;13.60;99.90
19665;DHT22;9980;51.020;7.772;2023-04-29T05:01:14;13.60;99.90
19665;DHT22;9980;51.020;7.772;2023-04-29T05:03:40;13.60;99.90
19665;DHT22;9980;51.020;7.772;2023-04-29T05:06:07;13.60;99.90
19665;DHT22;9980;51.020;7.772;2023-04-29T05:08:34;13.50;99.90
19665;DHT22;9980;51.020;7.772;2023-04-29T05:11:02;13.50;99.90
19665;DHT22;9980;51.020;7.772;2023-04-29T05:13:28;13.60;99.90
19665;DHT22;9980;51.020;7.772;2023-04-29T05:15:55;13.50;99.90
19665;DHT22;9980;51.020;7.772;2023-04-29T05:18:25;13.50;99.90
19665;DHT22;9980;51.020;7.772;2023-04-29T05:20:51;13.50;99.90
19665;DHT22;9980;51.020;7.772;2023-04-29T05:23:18;13.50;99.90
19665;DHT22;9980;51.020;7.772;2023-04-29T05:25:45;13.50;99.90
19665;DHT22;9980;51.020;7.772;2023-04-29T05:28:12;13.50;99.90
19665;DHT22;9980;51.020;7.772;2023-04-29T05:30:40;13.50;99.90
19665;DHT22;9980;51.020;7.772;2023-04-29T05:33:07;13.50;99.90
19665;DHT22;9980;51.020;7.772;2023-04-29T05:35:33;13.50;99.90
19665;DHT22;9980;51.020;7.772;2023-04-29T05:38:00;13.50;99.90
19665;DHT22;9980;51.020;7.772;2023-04-29T05:40:34;13.50;99.90
19665;DHT22;9980;51.020;7.772;2023-04-29T05:43:30;13.50;99.90
19665;DHT22;9980;51.020;7.772;2023-04-29T05:45:57;13.50;99.90
19665;DHT22;9980;51.020;7.772;2023-04-29T05:48:23;13.50;99.90
19665;DHT22;9980;51.020;7.772;2023-04-29T05:50:50;13.50;99.90
19665;DHT22;9980;51.020;7.772;2023-04-29T05:53:19;13.50;99.90
19665;DHT22;9980;51.020;7.772;2023-04-29T05:55:46;13.50;99.90
19665;DHT22;9980;51.020;7.772;2023-04-29T05:58:17;13.50;99.90
19665;DHT22;9980;51.020;7.772;2023-04-29T06:00:43;13.50;99.90
19665;DHT22;9980;51.020;7.772;2023-04-29T06:03:16;13.40;99.90
19665;DHT22;9980;51.020;7.772;2023-04-29T06:05:43;13.50;99.90
19665;DHT22;9980;51.020;7.772;2023-04-29T06:08:36;13.50;99.90
19665;DHT22;9980;51.020;7.772;2023-04-29T06:11:12;13.40;99.90
19665;DHT22;9980;51.020;7.772;2023-04-29T06:13:39;13.50;99.90
19665;DHT22;9980;51.020;7.772;2023-04-29T06:16:05;13.50;99.90
19665;DHT22;9980;51.020;7.772;2023-04-29T06:18:33;13.50;99.90
19665;DHT22;9980;51.020;7.772;2023-04-29T06:20:59;13.50;99.90
19665;DHT22;9980;51.020;7.772;2023-04-29T06:23:26;13.60;99.90
19665;DHT22;9980;51.020;7.772;2023-04-29T06:25:52;13.60;99.90
19665;DHT22;9980;51.020;7.772;2023-04-29T06:28:20;13.50;99.90
19665;DHT22;9980;51.020;7.772;2023-04-29T06:30:46;13.50;99.90
19665;DHT22;9980;51.020;7.772;2023-04-29T06:33:13;13.60;99.90
19665;DHT22;9980;51.020;7.772;2023-04-29T06:35:40;13.60;99.90
19665;DHT22;9980;51.020;7.772;2023-04-29T06:38:06;13.60;99.90
19665;DHT22;9980;51.020;7.772;2023-04-29T06:40:59;13.60;99.90
19665;DHT22;9980;51.020;7.772;2023-04-29T06:43:53;13.60;99.90
19665;DHT22;9980;51.020;7.772;2023-04-29T06:46:38;13.60;99.90
19665;DHT22;9980;51.020;7.772;2023-04-29T06:49:14;13.70;99.90
19665;DHT22;9980;51.020;7.772;2023-04-29T06:51:41;13.70;99.90
19665;DHT22;9980;51.020;7.772;2023-04-29T06:54:07;13.70;99.90
19665;DHT22;9980;51.020;7.772;2023-04-29T06:56:34;13.80;99.90
19665;DHT22;9980;51.020;7.772;2023-04-29T06:59:00;13.80;99.90
19665;DHT22;9980;51.020;7.772;2023-04-29T07:01:26;13.80;99.90
19665;DHT22;9980;51.020;7.772;2023-04-29T07:03:53;13.80;99.90
19665;DHT22;9980;51.020;7.772;2023-04-29T07:06:20;13.80;99.90
19665;DHT22;9980;51.020;7.772;2023-04-29T07:08:46;13.80;99.90
19665;DHT22;9980;51.020;7.772;2023-04-29T07:11:14;13.90;99.90
19665;DHT22;9980;51.020;7.772;2023-04-29T07:13:40;13.90;99.90
19665;DHT22;9980;51.020;7.772;2023-04-29T07:16:14;14.00;99.90
19665;DHT22;9980;51.020;7.772;2023-04-29T07:18:43;14.00;99.90
19665;DHT22;9980;51.020;7.772;2023-04-29T07:21:09;14.00;99.90
19665;DHT22;9980;51.020;7.772;2023-04-29T07:23:37;14.00;99.90
19665;DHT22;9980;51.020;7.772;2023-04-29T07:26:10;14.00;99.90
19665;DHT22;9980;51.020;7.772;2023-04-29T07:28:38;14.10;99.90
19665;DHT22;9980;51.020;7.772;2023-04-29T07:31:05;14.10;99.90
19665;DHT22;9980;51.020;7.772;2023-04-29T07:33:34;14.10;99.90
19665;DHT22;9980;51.020;7.772;2023-04-29T07:36:01;14.10;99.90
19665;DHT22;9980;51.020;7.772;2023-04-29T07:38:32;14.10;99.90
19665;DHT22;9980;51.020;7.772;2023-04-29T07:40:59;14.10;99.90
19665;DHT22;9980;51.020;7.772;2023-04-29T07:43:25;14.10;99.90
19665;DHT22;9980;51.020;7.772;2023-04-29T07:45:53;14.10;99.90
19665;DHT22;9980;51.020;7.772;2023-04-29T07:48:20;14.10;99.90
19665;DHT22;9980;51.020;7.772;2023-04-29T07:50:46;14.10;99.90
19665;DHT22;9980;51.020;7.772;2023-04-29T07:53:12;14.10;99.90
19665;DHT22;9980;51.020;7.772;2023-04-29T07:55:40;14.10;99.90
19665;DHT22;9980;51.020;7.772;2023-04-29T07:58:07;14.10;99.90
19665;DHT22;9980;51.020;7.772;2023-04-29T08:00:34;14.10;99.90
19665;DHT22;9980;51.020;7.772;2023-04-29T08:03:00;14.10;99.90
19665;DHT22;9980;51.020;7.772;2023-04-29T08:05:30;14.10;99.90
19665;DHT22;9980;51.020;7.772;2023-04-29T08:07:57;14.10;99.90
19665;DHT22;9980;51.020;7.772;2023-04-29T08:10:24;14.10;99.90
19665;DHT22;9980;51.020;7.772;2023-04-29T08:12:52;14.20;99.90
19665;DHT22;9980;51.020;7.772;2023-04-29T08:15:18;14.20;99.90
19665;DHT22;9980;51.020;7.772;2023-04-29T08:17:45;14.20;99.90
19665;DHT22;9980;51.020;7.772;2023-04-29T08:20:12;14.30;99.90
19665;DHT22;9980;51.020;7.772;2023-04-29T08:22:38;14.20;99.90
19665;DHT22;9980;51.020;7.772;2023-04-29T08:25:04;14.30;99.90
19665;DHT22;9980;51.020;7.772;2023-04-29T08:27:31;14.20;99.90
19665;DHT22;9980;51.020;7.772;2023-04-29T08:29:58;14.20;99.90
19665;DHT22;9980;51.020;7.772;2023-04-29T08:32:24;14.30;99.90
19665;DHT22;9980;51.020;7.772;2023-04-29T08:34:50;14.20;99.90
19665;DHT22;9980;51.020;7.772;2023-04-29T08:37:17;14.20;99.90
19665;DHT22;9980;51.020;7.772;2023-04-29T08:39:45;14.30;99.90
19665;DHT22;9980;51.020;7.772;2023-04-29T08:42:12;14.30;99.90
19665;DHT22;9980;51.020;7.772;2023-04-29T08:44:39;14.30;99.90
19665;DHT22;9980;51.020;7.772;2023-04-29T08:47:06;14.30;99.90
19665;DHT22;9980;51.020;7.772;2023-04-29T08:49:33;14.20;99.90
19665;DHT22;9980;51.020;7.772;2023-04-29T08:52:03;14.20;99.90
19665;DHT22;9980;51.020;7.772;2023-04-29T08:54:30;14.20;99.90
19665;DHT22;9980;51.020;7.772;2023-04-29T08:56:58;14.20;99.90
19665;DHT22;9980;51.020;7.772;2023-04-29T08:59:26;14.20;99.90
19665;DHT22;9980;51.020;7.772;2023-04-29T09:01:54;14.20;99.90
19665;DHT22;9980;51.020;7.772;2023-04-29T09:07:07;14.20;99.90
19665;DHT22;9980;51.020;7.772;2023-04-29T09:09:36;14.20;99.90
19665;DHT22;9980;51.020;7.772;2023-04-29T09:12:04;14.20;99.90
19665;DHT22;9980;51.020;7.772;2023-04-29T09:14:32;14.20;99.90
19665;DHT22;9980;51.020;7.772;2023-04-29T09:16:59;14.30;99.90
19665;DHT22;9980;51.020;7.772;2023-04-29T09:19:33;14.20;99.90
19665;DHT22;9980;51.020;7.772;2023-04-29T09:22:02;14.20;99.90
19665;DHT22;9980;51.020;7.772;2023-04-29T09:24:30;14.30;99.90
19665;DHT22;9980;51.020;7.772;2023-04-29T09:26:57;14.20;99.90
19665;DHT22;9980;51.020;7.772;2023-04-29T09:29:24;14.20;99.90
19665;DHT22;9980;51.020;7.772;2023-04-29T09:31:51;14.20;99.90
19665;DHT22;9980;51.020;7.772;2023-04-29T09:34:34;14.20;99.90
19665;DHT22;9980;51.020;7.772;2023-04-29T09:37:02;14.20;99.90
19665;DHT22;9980;51.020;7.772;2023-04-29T09:39:37;14.20;99.90
19665;DHT22;9980;51.020;7.772;2023-04-29T09:42:05;14.20;99.90
19665;DHT22;9980;51.020;7.772;2023-04-29T09:44:33;14.20;99.90
19665;DHT22;9980;51.020;7.772;2023-04-29T09:49:36;14.20;99.90
19665;DHT22;9980;51.020;7.772;2023-04-29T09:52:08;14.20;99.90
19665;DHT22;9980;51.020;7.772;2023-04-29T09:54:36;14.20;99.90
19665;DHT22;9980;51.020;7.772;2023-04-29T09:57:05;14.20;99.90
19665;DHT22;9980;51.020;7.772;2023-04-29T09:59:36;14.20;99.90
19665;DHT22;9980;51.020;7.772;2023-04-29T10:02:14;14.20;99.90
19665;DHT22;9980;51.020;7.772;2023-04-29T10:04:52;14.20;99.90
19665;DHT22;9980;51.020;7.772;2023-04-29T10:07:20;14.30;99.90
19665;DHT22;9980;51.020;7.772;2023-04-29T10:09:47;14.30;99.90
19665;DHT22;9980;51.020;7.772;2023-04-29T10:12:18;14.40;99.90
19665;DHT22;9980;51.020;7.772;2023-04-29T10:15:12;14.40;99.90
19665;DHT22;9980;51.020;7.772;2023-04-29T10:18:41;14.40;99.90
19665;DHT22;9980;51.020;7.772;2023-04-29T10:21:07;14.50;99.90
19665;DHT22;9980;51.020;7.772;2023-04-29T10:23:36;14.50;99.90
19665;DHT22;9980;51.020;7.772;2023-04-29T10:26:04;14.50;99.90
19665;DHT22;9980;51.020;7.772;2023-04-29T10:28:32;14.50;99.90
19665;DHT22;9980;51.020;7.772;2023-04-29T10:31:01;14.60;99.90
19665;DHT22;9980;51.020;7.772;2023-04-29T10:33:34;14.60;99.90
19665;DHT22;9980;51.020;7.772;2023-04-29T10:36:02;14.60;99.90
19665;DHT22;9980;51.020;7.772;2023-04-29T10:38:34;14.60;99.90
19665;DHT22;9980;51.020;7.772;2023-04-29T10:41:16;14.60;99.90
19665;DHT22;9980;51.020;7.772;2023-04-29T10:43:46;14.60;99.90
19665;DHT22;9980;51.020;7.772;2023-04-29T10:46:17;14.70;99.90
19665;DHT22;9980;51.020;7.772;2023-04-29T10:48:46;14.60;99.90
19665;DHT22;9980;51.020;7.772;2023-04-29T10:51:27;14.70;99.70
19665;DHT22;9980;51.020;7.772;2023-04-29T10:54:07;14.70;99.80
19665;DHT22;9980;51.020;7.772;2023-04-29T10:56:56;14.70;99.70
19665;DHT22;9980;51.020;7.772;2023-04-29T11:02:11;14.70;99.90
19665;DHT22;9980;51.020;7.772;2023-04-29T11:05:05;14.70;99.80
19665;DHT22;9980;51.020;7.772;2023-04-29T11:07:33;14.70;99.80
19665;DHT22;9980;51.020;7.772;2023-04-29T11:10:01;14.70;99.90
19665;DHT22;9980;51.020;7.772;2023-04-29T11:12:28;14.70;99.90
19665;DHT22;9980;51.020;7.772;2023-04-29T11:14:57;14.70;99.90
19665;DHT22;9980;51.020;7.772;2023-04-29T11:17:36;14.70;99.90
19665;DHT22;9980;51.020;7.772;2023-04-29T11:20:03;14.80;99.90
19665;DHT22;9980;51.020;7.772;2023-04-29T11:22:35;14.80;99.90
19665;DHT22;9980;51.020;7.772;2023-04-29T11:25:06;14.80;99.90
19665;DHT22;9980;51.020;7.772;2023-04-29T11:27:35;14.80;99.90
19665;DHT22;9980;51.020;7.772;2023-04-29T11:30:06;14.90;99.70
19665;DHT22;9980;51.020;7.772;2023-04-29T11:32:36;14.90;99.70
19665;DHT22;9980;51.020;7.772;2023-04-29T11:35:08;14.90;99.80
19665;DHT22;9980;51.020;7.772;2023-04-29T11:37:40;14.90;99.80
19665;DHT22;9980;51.020;7.772;2023-04-29T11:40:09;14.90;99.70
19665;DHT22;9980;51.020;7.772;2023-04-29T11:42:43;14.90;99.70
19665;DHT22;9980;51.020;7.772;2023-04-29T11:45:10;14.90;99.70
19665;DHT22;9980;51.020;7.772;2023-04-29T11:47:40;14.90;99.90
19665;DHT22;9980;51.020;7.772;2023-04-29T11:50:08;15.00;99.70
19665;DHT22;9980;51.020;7.772;2023-04-29T11:52:37;15.00;99.70
19665;DHT22;9980;51.020;7.772;2023-04-29T11:55:07;15.00;99.70
19665;DHT22;9980;51.020;7.772;2023-04-29T11:57:35;15.00;99.60
19665;DHT22;9980;51.020;7.772;2023-04-29T12:00:02;15.00;99.60
19665;DHT22;9980;51.020;7.772;2023-04-29T12:02:33;15.10;99.60
19665;DHT22;9980;51.020;7.772;2023-04-29T12:05:05;15.10;99.70
19665;DHT22;9980;51.020;7.772;2023-04-29T12:07:34;15.20;99.80
19665;DHT22;9980;51.020;7.772;2023-04-29T12:10:01;15.20;99.90
19665;DHT22;9980;51.020;7.772;2023-04-29T12:12:27;15.20;99.70
19665;DHT22;9980;51.020;7.772;2023-04-29T12:14:56;15.30;99.60
19665;DHT22;9980;51.020;7.772;2023-04-29T12:17:23;15.30;99.60
19665;DHT22;9980;51.020;7.772;2023-04-29T12:19:49;15.30;99.40
19665;DHT22;9980;51.020;7.772;2023-04-29T12:22:16;15.40;99.30
19665;DHT22;9980;51.020;7.772;2023-04-29T12:24:44;15.40;99.50
19665;DHT22;9980;51.020;7.772;2023-04-29T12:27:11;15.40;99.40
19665;DHT22;9980;51.020;7.772;2023-04-29T12:29:37;15.40;99.50
19665;DHT22;9980;51.020;7.772;2023-04-29T12:32:05;15.50;99.40
19665;DHT22;9980;51.020;7.772;2023-04-29T12:34:34;15.50;99.40
19665;DHT22;9980;51.020;7.772;2023-04-29T12:37:00;15.60;99.00
19665;DHT22;9980;51.020;7.772;2023-04-29T12:39:27;15.60;98.90
19665;DHT22;9980;51.020;7.772;2023-04-29T12:41:59;15.60;99.30
19665;DHT22;9980;51.020;7.772;2023-04-29T12:44:35;15.70;99.30
19665;DHT22;9980;51.020;7.772;2023-04-29T12:47:07;15.80;99.40
19665;DHT22;9980;51.020;7.772;2023-04-29T12:49:36;15.90;99.20
19665;DHT22;9980;51.020;7.772;2023-04-29T12:52:03;16.00;99.10
19665;DHT22;9980;51.020;7.772;2023-04-29T12:54:29;16.10;98.90
19665;DHT22;9980;51.020;7.772;2023-04-29T12:56:56;16.10;98.90
19665;DHT22;9980;51.020;7.772;2023-04-29T12:59:23;16.20;98.80
19665;DHT22;9980;51.020;7.772;2023-04-29T13:01:49;16.20;98.60
19665;DHT22;9980;51.020;7.772;2023-04-29T13:04:16;16.30;98.40
19665;DHT22;9980;51.020;7.772;2023-04-29T13:06:42;16.30;98.10
19665;DHT22;9980;51.020;7.772;2023-04-29T13:09:09;16.30;97.90
19665;DHT22;9980;51.020;7.772;2023-04-29T13:11:44;16.30;97.90
19665;DHT22;9980;51.020;7.772;2023-04-29T13:14:10;16.30;98.10
19665;DHT22;9980;51.020;7.772;2023-04-29T13:16:36;16.30;97.80
19665;DHT22;9980;51.020;7.772;2023-04-29T13:19:03;16.20;97.50
19665;DHT22;9980;51.020;7.772;2023-04-29T13:21:49;16.30;97.40
19665;DHT22;9980;51.020;7.772;2023-04-29T13:24:15;16.20;97.50
19665;DHT22;9980;51.020;7.772;2023-04-29T13:26:43;16.20;97.60
19665;DHT22;9980;51.020;7.772;2023-04-29T13:29:10;16.20;97.40
19665;DHT22;9980;51.020;7.772;2023-04-29T13:31:36;16.20;97.20
19665;DHT22;9980;51.020;7.772;2023-04-29T13:34:02;16.20;97.10
19665;DHT22;9980;51.020;7.772;2023-04-29T13:36:29;16.10;97.20
19665;DHT22;9980;51.020;7.772;2023-04-29T13:38:55;16.10;97.30
19665;DHT22;9980;51.020;7.772;2023-04-29T13:41:21;16.10;97.10
19665;DHT22;9980;51.020;7.772;2023-04-29T13:43:48;16.10;97.30
19665;DHT22;9980;51.020;7.772;2023-04-29T13:46:16;16.20;97.30
19665;DHT22;9980;51.020;7.772;2023-04-29T13:48:46;16.20;97.10
19665;DHT22;9980;51.020;7.772;2023-04-29T13:51:15;16.20;97.20
19665;DHT22;9980;51.020;7.772;2023-04-29T13:54:01;16.20;97.00
19665;DHT22;9980;51.020;7.772;2023-04-29T13:56:48;16.20;97.00
19665;DHT22;9980;51.020;7.772;2023-04-29T13:59:17;16.10;97.00
19665;DHT22;9980;51.020;7.772;2023-04-29T14:01:46;16.20;96.70
19665;DHT22;9980;51.020;7.772;2023-04-29T14:04:16;16.10;96.60
19665;DHT22;9980;51.020;7.772;2023-04-29T14:06:42;16.10;96.80
19665;DHT22;9980;51.020;7.772;2023-04-29T14:09:09;16.10;96.80
19665;DHT22;9980;51.020;7.772;2023-04-29T14:11:35;16.10;96.70
19665;DHT22;9980;51.020;7.772;2023-04-29T14:14:02;16.00;96.80
19665;DHT22;9980;51.020;7.772;2023-04-29T14:16:28;16.00;96.80
19665;DHT22;9980;51.020;7.772;2023-04-29T14:18:55;16.00;96.90
19665;DHT22;9980;51.020;7.772;2023-04-29T14:21:22;16.00;96.80
19665;DHT22;9980;51.020;7.772;2023-04-29T14:23:49;15.90;96.80
19665;DHT22;9980;51.020;7.772;2023-04-29T14:26:15;15.90;96.70
19665;DHT22;9980;51.020;7.772;2023-04-29T14:28:54;15.90;96.80
19665;DHT22;9980;51.020;7.772;2023-04-29T14:31:29;15.90;97.10
19665;DHT22;9980;51.020;7.772;2023-04-29T14:33:58;15.90;97.30
19665;DHT22;9980;51.020;7.772;2023-04-29T14:36:25;15.90;96.90
19665;DHT22;9980;51.020;7.772;2023-04-29T14:38:51;15.90;97.00
19665;DHT22;9980;51.020;7.772;2023-04-29T14:41:18;15.90;96.90
19665;DHT22;9980;51.020;7.772;2023-04-29T14:43:46;15.90;96.70
19665;DHT22;9980;51.020;7.772;2023-04-29T14:46:13;16.00;96.70
19665;DHT22;9980;51.020;7.772;2023-04-29T14:48:39;16.00;97.00
19665;DHT22;9980;51.020;7.772;2023-04-29T14:51:05;16.00;97.10
19665;DHT22;9980;51.020;7.772;2023-04-29T14:53:32;16.10;97.00
19665;DHT22;9980;51.020;7.772;2023-04-29T14:55:59;16.10;96.90
19665;DHT22;9980;51.020;7.772;2023-04-29T14:58:26;16.10;96.80
19665;DHT22;9980;51.020;7.772;2023-04-29T15:00:52;16.10;96.70
19665;DHT22;9980;51.020;7.772;2023-04-29T15:03:18;16.20;96.70
19665;DHT22;9980;51.020;7.772;2023-04-29T15:05:49;16.20;96.90
19665;DHT22;9980;51.020;7.772;2023-04-29T15:08:16;16.20;96.70
19665;DHT22;9980;51.020;7.772;2023-04-29T15:10:44;16.20;96.60
19665;DHT22;9980;51.020;7.772;2023-04-29T15:13:14;16.30;96.80
19665;DHT22;9980;51.020;7.772;2023-04-29T15:15:41;16.30;96.70
19665;DHT22;9980;51.020;7.772;2023-04-29T15:18:07;16.30;96.80
19665;DHT22;9980;51.020;7.772;2023-04-29T15:20:35;16.30;96.60
19665;DHT22;9980;51.020;7.772;2023-04-29T15:23:02;16.40;96.60
19665;DHT22;9980;51.020;7.772;2023-04-29T15:25:29;16.40;96.50
19665;DHT22;9980;51.020;7.772;2023-04-29T15:27:58;16.40;96.40
19665;DHT22;9980;51.020;7.772;2023-04-29T15:30:26;16.40;96.30
19665;DHT22;9980;51.020;7.772;2023-04-29T15:32:53;16.40;96.40
19665;DHT22;9980;51.020;7.772;2023-04-29T15:35:20;16.30;96.00
19665;DHT22;9980;51.020;7.772;2023-04-29T15:37:46;16.30;96.00
19665;DHT22;9980;51.020;7.772;2023-04-29T15:40:13;16.30;95.90
19665;DHT22;9980;51.020;7.772;2023-04-29T15:42:39;16.30;95.80
19665;DHT22;9980;51.020;7.772;2023-04-29T15:45:06;16.20;95.80
19665;DHT22;9980;51.020;7.772;2023-04-29T15:47:35;16.20;95.60
19665;DHT22;9980;51.020;7.772;2023-04-29T15:50:02;16.20;95.90
19665;DHT22;9980;51.020;7.772;2023-04-29T15:52:28;16.10;95.70
19665;DHT22;9980;51.020;7.772;2023-04-29T15:54:55;16.10;95.80
19665;DHT22;9980;51.020;7.772;2023-04-29T15:57:21;16.00;95.90
19665;DHT22;9980;51.020;7.772;2023-04-29T15:59:47;16.00;96.00
19665;DHT22;9980;51.020;7.772;2023-04-29T16:02:13;16.00;96.10
19665;DHT22;9980;51.020;7.772;2023-04-29T16:04:40;15.90;96.00
19665;DHT22;9980;51.020;7.772;2023-04-29T16:07:06;15.90;95.90
19665;DHT22;9980;51.020;7.772;2023-04-29T16:09:33;15.90;95.90
19665;DHT22;9980;51.020;7.772;2023-04-29T16:12:00;16.00;95.70
19665;DHT22;9980;51.020;7.772;2023-04-29T16:14:27;15.90;95.60
19665;DHT22;9980;51.020;7.772;2023-04-29T16:16:55;15.90;95.80
19665;DHT22;9980;51.020;7.772;2023-04-29T16:19:21;15.90;95.80
19665;DHT22;9980;51.020;7.772;2023-04-29T16:21:47;15.90;95.70
19665;DHT22;9980;51.020;7.772;2023-04-29T16:24:14;15.90;95.90